sensor_id;sensor_type;location;lat;lon;timestamp;temperature;humidity
68450;SHT30;55434;39.570;2.652;2022-10-24T00:02:24;21.01;85.13
68450;SHT30;55434;39.570;2.652;2022-10-24T00:04:50;21.02;85.26
68450;SHT30;55434;39.570;2.652;2022-10-24T00:07:16;21.07;86.14
68450;SHT30;55434;39.570;2.652;2022-10-24T00:09:41;21.10;86.55
68450;SHT30;55434;39.570;2.652;2022-10-24T00:12:08;21.17;86.43
68450;SHT30;55434;39.570;2.652;2022-10-24T00:14:35;21.12;86.15
68450;SHT30;55434;39.570;2.652;2022-10-24T00:17:00;21.14;86.28
68450;SHT30;55434;39.570;2.652;2022-10-24T00:19:26;21.18;85.92
68450;SHT30;55434;39.570;2.652;2022-10-24T00:21:52;21.18;86.20
68450;SHT30;55434;39.570;2.652;2022-10-24T00:24:18;21.15;85.73
68450;SHT30;55434;39.570;2.652;2022-10-24T00:26:43;21.18;85.56
68450;SHT30;55434;39.570;2.652;2022-10-24T00:29:10;21.14;85.47
68450;SHT30;55434;39.570;2.652;2022-10-24T00:31:36;21.14;85.43
68450;SHT30;55434;39.570;2.652;2022-10-24T00:34:03;21.11;85.55
68450;SHT30;55434;39.570;2.652;2022-10-24T00:36:28;21.08;85.57
68450;SHT30;55434;39.570;2.652;2022-10-24T00:38:54;21.07;85.46
68450;SHT30;55434;39.570;2.652;2022-10-24T00:41:25;21.01;85.63
68450;SHT30;55434;39.570;2.652;2022-10-24T00:49:28;20.94;85.25
68450;SHT30;55434;39.570;2.652;2022-10-24T00:52:02;20.91;85.30
68450;SHT30;55434;39.570;2.652;2022-10-24T00:54:28;20.90;85.35
68450;SHT30;55434;39.570;2.652;2022-10-24T00:57:03;20.84;85.46
68450;SHT30;55434;39.570;2.652;2022-10-24T00:59:32;20.80;85.80
68450;SHT30;55434;39.570;2.652;2022-10-24T01:01:58;20.83;86.14
68450;SHT30;55434;39.570;2.652;2022-10-24T01:04:24;20.80;86.76
68450;SHT30;55434;39.570;2.652;2022-10-24T01:12:44;20.67;87.31
68450;SHT30;55434;39.570;2.652;2022-10-24T01:17:56;20.66;87.08
68450;SHT30;55434;39.570;2.652;2022-10-24T01:25:58;20.77;86.40
68450;SHT30;55434;39.570;2.652;2022-10-24T01:31:30;20.53;87.31
68450;SHT30;55434;39.570;2.652;2022-10-24T01:34:06;20.51;87.52
68450;SHT30;55434;39.570;2.652;2022-10-24T01:36:39;20.39;88.14
68450;SHT30;55434;39.570;2.652;2022-10-24T01:39:12;20.40;88.52
68450;SHT30;55434;39.570;2.652;2022-10-24T01:41:40;20.43;88.96
68450;SHT30;55434;39.570;2.652;2022-10-24T01:44:15;20.44;89.38
68450;SHT30;55434;39.570;2.652;2022-10-24T01:46:51;20.46;89.25
68450;SHT30;55434;39.570;2.652;2022-10-24T01:49:20;20.46;88.48
68450;SHT30;55434;39.570;2.652;2022-10-24T01:51:48;20.44;87.84
68450;SHT30;55434;39.570;2.652;2022-10-24T01:54:15;20.46;88.73
68450;SHT30;55434;39.570;2.652;2022-10-24T01:56:41;20.50;89.38
68450;SHT30;55434;39.570;2.652;2022-10-24T02:01:55;20.64;90.26
68450;SHT30;55434;39.570;2.652;2022-10-24T02:04:26;20.59;89.96
68450;SHT30;55434;39.570;2.652;2022-10-24T02:06:55;20.69;90.28
68450;SHT30;55434;39.570;2.652;2022-10-24T02:09:22;20.70;90.83
68450;SHT30;55434;39.570;2.652;2022-10-24T02:11:51;20.79;91.21
68450;SHT30;55434;39.570;2.652;2022-10-24T02:15:04;20.81;91.22
68450;SHT30;55434;39.570;2.652;2022-10-24T02:17:09;20.80;91.29
68450;SHT30;55434;39.570;2.652;2022-10-24T02:19:36;20.84;91.10
68450;SHT30;55434;39.570;2.652;2022-10-24T02:24:52;20.85;90.92
68450;SHT30;55434;39.570;2.652;2022-10-24T02:27:30;20.79;90.92
68450;SHT30;55434;39.570;2.652;2022-10-24T02:30:00;20.74;90.87
68450;SHT30;55434;39.570;2.652;2022-10-24T02:32:31;20.70;89.93
68450;SHT30;55434;39.570;2.652;2022-10-24T02:34:59;20.70;90.44
68450;SHT30;55434;39.570;2.652;2022-10-24T02:37:27;20.71;90.57
68450;SHT30;55434;39.570;2.652;2022-10-24T02:39:55;20.71;90.59
68450;SHT30;55434;39.570;2.652;2022-10-24T02:42:23;20.74;90.53
68450;SHT30;55434;39.570;2.652;2022-10-24T02:44:49;20.74;90.40
68450;SHT30;55434;39.570;2.652;2022-10-24T02:47:17;20.79;90.51
68450;SHT30;55434;39.570;2.652;2022-10-24T02:49:44;20.79;90.16
68450;SHT30;55434;39.570;2.652;2022-10-24T02:52:10;20.80;90.13
68450;SHT30;55434;39.570;2.652;2022-10-24T02:54:36;20.81;89.88
68450;SHT30;55434;39.570;2.652;2022-10-24T02:57:03;20.81;89.52
68450;SHT30;55434;39.570;2.652;2022-10-24T02:59:29;20.83;89.37
68450;SHT30;55434;39.570;2.652;2022-10-24T03:01:55;20.87;89.03
68450;SHT30;55434;39.570;2.652;2022-10-24T03:04:20;20.85;88.77
68450;SHT30;55434;39.570;2.652;2022-10-24T03:06:46;20.83;88.64
68450;SHT30;55434;39.570;2.652;2022-10-24T03:09:12;20.79;88.11
68450;SHT30;55434;39.570;2.652;2022-10-24T03:11:38;20.77;88.11
68450;SHT30;55434;39.570;2.652;2022-10-24T03:14:04;20.80;88.00
68450;SHT30;55434;39.570;2.652;2022-10-24T03:16:30;20.74;87.55
68450;SHT30;55434;39.570;2.652;2022-10-24T03:18:55;20.79;87.34
68450;SHT30;55434;39.570;2.652;2022-10-24T03:21:21;20.74;86.96
68450;SHT30;55434;39.570;2.652;2022-10-24T03:23:47;20.70;86.47
68450;SHT30;55434;39.570;2.652;2022-10-24T03:26:13;20.71;85.83
68450;SHT30;55434;39.570;2.652;2022-10-24T03:28:39;20.71;85.47
68450;SHT30;55434;39.570;2.652;2022-10-24T03:31:05;20.71;84.85
68450;SHT30;55434;39.570;2.652;2022-10-24T03:33:31;20.70;84.80
68450;SHT30;55434;39.570;2.652;2022-10-24T03:35:57;20.73;84.37
68450;SHT30;55434;39.570;2.652;2022-10-24T03:38:23;20.73;84.62
68450;SHT30;55434;39.570;2.652;2022-10-24T03:40:49;20.79;84.43
68450;SHT30;55434;39.570;2.652;2022-10-24T03:43:15;20.73;84.17
68450;SHT30;55434;39.570;2.652;2022-10-24T03:45:40;20.74;84.05
68450;SHT30;55434;39.570;2.652;2022-10-24T03:48:06;20.69;84.27
68450;SHT30;55434;39.570;2.652;2022-10-24T03:50:32;20.69;84.03
68450;SHT30;55434;39.570;2.652;2022-10-24T03:52:58;20.59;83.71
68450;SHT30;55434;39.570;2.652;2022-10-24T03:55:25;20.56;83.37
68450;SHT30;55434;39.570;2.652;2022-10-24T03:57:51;20.50;82.74
68450;SHT30;55434;39.570;2.652;2022-10-24T04:00:17;20.43;82.35
68450;SHT30;55434;39.570;2.652;2022-10-24T04:02:43;20.37;81.32
68450;SHT30;55434;39.570;2.652;2022-10-24T04:05:09;20.34;80.55
68450;SHT30;55434;39.570;2.652;2022-10-24T04:07:35;20.40;78.84
68450;SHT30;55434;39.570;2.652;2022-10-24T04:10:01;20.42;78.69
68450;SHT30;55434;39.570;2.652;2022-10-24T04:12:27;20.46;78.55
68450;SHT30;55434;39.570;2.652;2022-10-24T04:14:52;20.44;77.89
68450;SHT30;55434;39.570;2.652;2022-10-24T04:17:18;20.40;77.73
68450;SHT30;55434;39.570;2.652;2022-10-24T04:19:44;20.40;77.85
68450;SHT30;55434;39.570;2.652;2022-10-24T04:22:09;20.39;77.80
68450;SHT30;55434;39.570;2.652;2022-10-24T04:24:35;20.33;77.80
68450;SHT30;55434;39.570;2.652;2022-10-24T04:27:04;20.29;77.31
68450;SHT30;55434;39.570;2.652;2022-10-24T04:29:30;20.28;76.39
68450;SHT30;55434;39.570;2.652;2022-10-24T04:31:56;20.25;76.71
68450;SHT30;55434;39.570;2.652;2022-10-24T04:34:22;20.23;75.76
68450;SHT30;55434;39.570;2.652;2022-10-24T04:36:47;20.25;76.13
68450;SHT30;55434;39.570;2.652;2022-10-24T04:39:13;20.23;76.24
68450;SHT30;55434;39.570;2.652;2022-10-24T04:41:39;20.25;75.74
68450;SHT30;55434;39.570;2.652;2022-10-24T04:44:04;20.20;74.02
68450;SHT30;55434;39.570;2.652;2022-10-24T04:46:30;20.19;75.07
68450;SHT30;55434;39.570;2.652;2022-10-24T04:48:56;20.16;74.05
68450;SHT30;55434;39.570;2.652;2022-10-24T04:51:21;20.12;74.32
68450;SHT30;55434;39.570;2.652;2022-10-24T04:53:47;20.12;74.58
68450;SHT30;55434;39.570;2.652;2022-10-24T04:56:13;20.10;75.41
68450;SHT30;55434;39.570;2.652;2022-10-24T04:58:39;20.00;75.11
68450;SHT30;55434;39.570;2.652;2022-10-24T05:01:05;20.00;76.17
68450;SHT30;55434;39.570;2.652;2022-10-24T05:03:30;19.89;76.62
68450;SHT30;55434;39.570;2.652;2022-10-24T05:05:58;19.82;76.14
68450;SHT30;55434;39.570;2.652;2022-10-24T05:08:23;19.69;76.22
68450;SHT30;55434;39.570;2.652;2022-10-24T05:10:49;19.59;76.23
68450;SHT30;55434;39.570;2.652;2022-10-24T05:13:15;19.55;76.46
68450;SHT30;55434;39.570;2.652;2022-10-24T05:15:42;19.48;76.14
68450;SHT30;55434;39.570;2.652;2022-10-24T05:18:08;19.48;76.11
68450;SHT30;55434;39.570;2.652;2022-10-24T05:20:33;19.46;75.50
68450;SHT30;55434;39.570;2.652;2022-10-24T05:22:59;19.51;74.92
68450;SHT30;55434;39.570;2.652;2022-10-24T05:25:25;19.48;75.21
68450;SHT30;55434;39.570;2.652;2022-10-24T05:27:50;19.47;74.44
68450;SHT30;55434;39.570;2.652;2022-10-24T05:30:16;19.47;73.72
68450;SHT30;55434;39.570;2.652;2022-10-24T05:32:42;19.46;74.22
68450;SHT30;55434;39.570;2.652;2022-10-24T05:35:30;19.46;74.08
68450;SHT30;55434;39.570;2.652;2022-10-24T05:37:58;19.44;74.46
68450;SHT30;55434;39.570;2.652;2022-10-24T05:40:27;19.47;74.41
68450;SHT30;55434;39.570;2.652;2022-10-24T05:42:54;19.50;74.21
68450;SHT30;55434;39.570;2.652;2022-10-24T05:45:20;19.51;73.90
68450;SHT30;55434;39.570;2.652;2022-10-24T05:47:46;19.53;74.32
68450;SHT30;55434;39.570;2.652;2022-10-24T05:50:19;19.50;74.40
68450;SHT30;55434;39.570;2.652;2022-10-24T06:09:07;19.78;73.89
68450;SHT30;55434;39.570;2.652;2022-10-24T06:18:02;19.72;74.47
68450;SHT30;55434;39.570;2.652;2022-10-24T06:20:28;19.62;74.94
68450;SHT30;55434;39.570;2.652;2022-10-24T06:22:54;19.68;75.37
68450;SHT30;55434;39.570;2.652;2022-10-24T06:25:19;19.67;75.57
68450;SHT30;55434;39.570;2.652;2022-10-24T06:27:46;19.69;75.55
68450;SHT30;55434;39.570;2.652;2022-10-24T06:30:16;19.74;74.77
68450;SHT30;55434;39.570;2.652;2022-10-24T06:32:45;19.74;73.91
68450;SHT30;55434;39.570;2.652;2022-10-24T06:35:15;19.79;73.92
68450;SHT30;55434;39.570;2.652;2022-10-24T06:37:41;19.77;74.26
68450;SHT30;55434;39.570;2.652;2022-10-24T06:40:07;19.71;74.74
68450;SHT30;55434;39.570;2.652;2022-10-24T06:42:34;19.74;74.69
68450;SHT30;55434;39.570;2.652;2022-10-24T06:45:03;19.77;75.07
68450;SHT30;55434;39.570;2.652;2022-10-24T06:47:32;19.69;75.02
68450;SHT30;55434;39.570;2.652;2022-10-24T06:49:58;19.81;74.54
68450;SHT30;55434;39.570;2.652;2022-10-24T06:52:27;19.93;73.95
68450;SHT30;55434;39.570;2.652;2022-10-24T06:54:53;20.00;73.03
68450;SHT30;55434;39.570;2.652;2022-10-24T06:57:19;20.05;72.33
68450;SHT30;55434;39.570;2.652;2022-10-24T06:59:46;20.13;71.07
68450;SHT30;55434;39.570;2.652;2022-10-24T07:02:13;20.15;71.00
68450;SHT30;55434;39.570;2.652;2022-10-24T07:04:39;20.13;71.39
68450;SHT30;55434;39.570;2.652;2022-10-24T07:07:05;20.15;72.31
68450;SHT30;55434;39.570;2.652;2022-10-24T07:09:31;20.20;72.93
68450;SHT30;55434;39.570;2.652;2022-10-24T07:11:57;20.26;72.73
68450;SHT30;55434;39.570;2.652;2022-10-24T07:14:23;20.42;72.47
68450;SHT30;55434;39.570;2.652;2022-10-24T07:16:51;20.44;72.18
68450;SHT30;55434;39.570;2.652;2022-10-24T07:19:16;20.47;72.12
68450;SHT30;55434;39.570;2.652;2022-10-24T07:21:45;20.50;71.81
68450;SHT30;55434;39.570;2.652;2022-10-24T07:24:24;20.64;71.74
68450;SHT30;55434;39.570;2.652;2022-10-24T07:27:01;20.70;70.66
68450;SHT30;55434;39.570;2.652;2022-10-24T07:29:28;20.80;70.60
68450;SHT30;55434;39.570;2.652;2022-10-24T07:31:57;20.84;69.84
68450;SHT30;55434;39.570;2.652;2022-10-24T07:34:26;20.95;69.00
68450;SHT30;55434;39.570;2.652;2022-10-24T07:36:51;20.97;68.66
68450;SHT30;55434;39.570;2.652;2022-10-24T07:39:19;21.05;68.02
68450;SHT30;55434;39.570;2.652;2022-10-24T07:41:47;21.11;67.38
68450;SHT30;55434;39.570;2.652;2022-10-24T07:44:13;21.18;67.30
68450;SHT30;55434;39.570;2.652;2022-10-24T07:46:44;21.21;67.45
68450;SHT30;55434;39.570;2.652;2022-10-24T07:49:13;21.31;67.40
68450;SHT30;55434;39.570;2.652;2022-10-24T07:51:40;21.35;67.68
68450;SHT30;55434;39.570;2.652;2022-10-24T07:54:06;21.38;67.52
68450;SHT30;55434;39.570;2.652;2022-10-24T07:56:32;21.46;66.50
68450;SHT30;55434;39.570;2.652;2022-10-24T07:58:58;21.56;66.13
68450;SHT30;55434;39.570;2.652;2022-10-24T08:01:26;21.62;67.02
68450;SHT30;55434;39.570;2.652;2022-10-24T08:03:53;21.65;67.28
68450;SHT30;55434;39.570;2.652;2022-10-24T08:06:26;21.72;68.38
68450;SHT30;55434;39.570;2.652;2022-10-24T08:08:53;21.75;68.51
68450;SHT30;55434;39.570;2.652;2022-10-24T08:11:22;21.81;68.63
68450;SHT30;55434;39.570;2.652;2022-10-24T08:13:49;21.83;68.75
68450;SHT30;55434;39.570;2.652;2022-10-24T08:16:17;21.92;68.77
68450;SHT30;55434;39.570;2.652;2022-10-24T08:18:45;22.02;68.74
68450;SHT30;55434;39.570;2.652;2022-10-24T08:21:13;22.10;68.73
68450;SHT30;55434;39.570;2.652;2022-10-24T08:23:42;22.17;68.31
68450;SHT30;55434;39.570;2.652;2022-10-24T08:26:11;22.32;67.53
68450;SHT30;55434;39.570;2.652;2022-10-24T08:28:37;22.46;66.81
68450;SHT30;55434;39.570;2.652;2022-10-24T08:31:06;22.54;67.05
68450;SHT30;55434;39.570;2.652;2022-10-24T08:33:32;22.63;66.77
68450;SHT30;55434;39.570;2.652;2022-10-24T08:36:02;22.72;66.69
68450;SHT30;55434;39.570;2.652;2022-10-24T08:38:29;22.92;66.79
68450;SHT30;55434;39.570;2.652;2022-10-24T08:40:56;23.08;66.14
68450;SHT30;55434;39.570;2.652;2022-10-24T08:43:22;23.19;65.33
68450;SHT30;55434;39.570;2.652;2022-10-24T08:46:05;23.39;64.75
68450;SHT30;55434;39.570;2.652;2022-10-24T08:48:50;23.56;64.30
68450;SHT30;55434;39.570;2.652;2022-10-24T08:51:37;23.77;64.35
68450;SHT30;55434;39.570;2.652;2022-10-24T08:54:18;23.90;64.35
68450;SHT30;55434;39.570;2.652;2022-10-24T08:56:45;24.06;64.00
68450;SHT30;55434;39.570;2.652;2022-10-24T08:59:12;24.16;64.39
68450;SHT30;55434;39.570;2.652;2022-10-24T09:02:01;24.45;67.25
68450;SHT30;55434;39.570;2.652;2022-10-24T09:04:50;24.58;67.45
68450;SHT30;55434;39.570;2.652;2022-10-24T09:07:25;24.81;69.67
68450;SHT30;55434;39.570;2.652;2022-10-24T09:12:51;25.00;69.86
68450;SHT30;55434;39.570;2.652;2022-10-24T09:15:29;25.13;70.09
68450;SHT30;55434;39.570;2.652;2022-10-24T09:17:57;25.24;70.65
68450;SHT30;55434;39.570;2.652;2022-10-24T09:20:30;25.34;69.84
68450;SHT30;55434;39.570;2.652;2022-10-24T09:23:05;25.51;70.19
68450;SHT30;55434;39.570;2.652;2022-10-24T09:25:34;25.57;71.05
68450;SHT30;55434;39.570;2.652;2022-10-24T09:28:02;25.67;71.32
68450;SHT30;55434;39.570;2.652;2022-10-24T09:30:29;25.80;70.31
68450;SHT30;55434;39.570;2.652;2022-10-24T09:32:58;25.94;69.73
68450;SHT30;55434;39.570;2.652;2022-10-24T09:35:32;25.98;70.15
68450;SHT30;55434;39.570;2.652;2022-10-24T09:38:26;26.02;70.38
68450;SHT30;55434;39.570;2.652;2022-10-24T09:41:02;26.22;68.91
68450;SHT30;55434;39.570;2.652;2022-10-24T09:43:45;26.22;68.58
68450;SHT30;55434;39.570;2.652;2022-10-24T09:50:30;26.38;67.17
68450;SHT30;55434;39.570;2.652;2022-10-24T09:57:16;28.43;61.28
68450;SHT30;55434;39.570;2.652;2022-10-24T10:04:10;29.95;56.45
68450;SHT30;55434;39.570;2.652;2022-10-24T10:14:23;28.90;58.94
68450;SHT30;55434;39.570;2.652;2022-10-24T10:17:02;29.78;56.96
68450;SHT30;55434;39.570;2.652;2022-10-24T10:19:36;30.64;54.71
68450;SHT30;55434;39.570;2.652;2022-10-24T10:22:05;29.68;56.90
68450;SHT30;55434;39.570;2.652;2022-10-24T10:28:25;30.59;55.02
68450;SHT30;55434;39.570;2.652;2022-10-24T10:30:56;30.98;54.48
68450;SHT30;55434;39.570;2.652;2022-10-24T10:33:35;30.95;53.91
68450;SHT30;55434;39.570;2.652;2022-10-24T10:36:21;31.16;53.54
68450;SHT30;55434;39.570;2.652;2022-10-24T10:49:40;29.51;59.00
68450;SHT30;55434;39.570;2.652;2022-10-24T10:52:24;30.48;56.22
68450;SHT30;55434;39.570;2.652;2022-10-24T11:08:23;30.88;55.57
68450;SHT30;55434;39.570;2.652;2022-10-24T11:11:26;31.22;54.84
68450;SHT30;55434;39.570;2.652;2022-10-24T11:17:36;32.03;53.28
68450;SHT30;55434;39.570;2.652;2022-10-24T11:24:41;32.45;52.12
68450;SHT30;55434;39.570;2.652;2022-10-24T11:31:22;32.78;51.50
68450;SHT30;55434;39.570;2.652;2022-10-24T11:34:10;32.60;51.81
68450;SHT30;55434;39.570;2.652;2022-10-24T11:37:29;32.23;52.98
68450;SHT30;55434;39.570;2.652;2022-10-24T11:40:39;32.85;51.54
68450;SHT30;55434;39.570;2.652;2022-10-24T11:43:34;32.58;52.24
68450;SHT30;55434;39.570;2.652;2022-10-24T11:46:54;32.64;52.38
68450;SHT30;55434;39.570;2.652;2022-10-24T11:59:24;31.94;54.76
68450;SHT30;55434;39.570;2.652;2022-10-24T12:11:37;31.35;56.43
68450;SHT30;55434;39.570;2.652;2022-10-24T12:14:50;31.43;56.39
68450;SHT30;55434;39.570;2.652;2022-10-24T12:22:04;30.75;58.01
68450;SHT30;55434;39.570;2.652;2022-10-24T12:24:37;30.64;58.38
68450;SHT30;55434;39.570;2.652;2022-10-24T12:44:34;31.36;56.57
68450;SHT30;55434;39.570;2.652;2022-10-24T12:47:38;30.40;59.01
68450;SHT30;55434;39.570;2.652;2022-10-24T12:53:17;29.72;61.09
68450;SHT30;55434;39.570;2.652;2022-10-24T12:56:05;30.06;59.53
68450;SHT30;55434;39.570;2.652;2022-10-24T12:58:37;29.89;59.99
68450;SHT30;55434;39.570;2.652;2022-10-24T13:01:09;29.82;59.69
68450;SHT30;55434;39.570;2.652;2022-10-24T13:19:28;28.76;63.48
68450;SHT30;55434;39.570;2.652;2022-10-24T13:22:01;29.14;62.10
68450;SHT30;55434;39.570;2.652;2022-10-24T13:24:47;29.20;61.27
68450;SHT30;55434;39.570;2.652;2022-10-24T13:27:34;28.89;62.15
68450;SHT30;55434;39.570;2.652;2022-10-24T13:30:23;28.77;61.83
68450;SHT30;55434;39.570;2.652;2022-10-24T13:36:14;28.60;64.28
68450;SHT30;55434;39.570;2.652;2022-10-24T13:38:52;28.77;63.71
68450;SHT30;55434;39.570;2.652;2022-10-24T13:41:28;29.20;61.57
68450;SHT30;55434;39.570;2.652;2022-10-24T13:50:05;29.55;60.44
68450;SHT30;55434;39.570;2.652;2022-10-24T13:55:46;29.18;58.80
68450;SHT30;55434;39.570;2.652;2022-10-24T13:58:24;29.20;58.72
68450;SHT30;55434;39.570;2.652;2022-10-24T14:01:20;29.22;58.17
68450;SHT30;55434;39.570;2.652;2022-10-24T14:06:44;29.22;58.18
68450;SHT30;55434;39.570;2.652;2022-10-24T14:09:10;29.52;58.11
68450;SHT30;55434;39.570;2.652;2022-10-24T14:11:49;29.44;58.07
68450;SHT30;55434;39.570;2.652;2022-10-24T14:14:38;29.44;58.45
68450;SHT30;55434;39.570;2.652;2022-10-24T14:17:20;29.41;58.45
68450;SHT30;55434;39.570;2.652;2022-10-24T14:23:41;28.91;60.85
68450;SHT30;55434;39.570;2.652;2022-10-24T14:26:30;28.19;62.63
68450;SHT30;55434;39.570;2.652;2022-10-24T14:28:59;28.55;61.66
68450;SHT30;55434;39.570;2.652;2022-10-24T14:31:31;28.49;61.71
68450;SHT30;55434;39.570;2.652;2022-10-24T14:34:19;28.87;60.53
68450;SHT30;55434;39.570;2.652;2022-10-24T14:36:52;28.81;60.55
68450;SHT30;55434;39.570;2.652;2022-10-24T14:39:24;28.53;61.16
68450;SHT30;55434;39.570;2.652;2022-10-24T14:41:53;28.35;61.37
68450;SHT30;55434;39.570;2.652;2022-10-24T14:44:24;28.49;61.77
68450;SHT30;55434;39.570;2.652;2022-10-24T14:47:03;28.66;61.25
68450;SHT30;55434;39.570;2.652;2022-10-24T14:49:37;28.66;61.30
68450;SHT30;55434;39.570;2.652;2022-10-24T14:55:02;28.32;61.59
68450;SHT30;55434;39.570;2.652;2022-10-24T14:57:35;28.19;61.92
68450;SHT30;55434;39.570;2.652;2022-10-24T15:00:18;28.43;60.97
68450;SHT30;55434;39.570;2.652;2022-10-24T15:02:46;28.74;60.33
68450;SHT30;55434;39.570;2.652;2022-10-24T15:08:01;28.10;62.36
68450;SHT30;55434;39.570;2.652;2022-10-24T15:15:46;28.52;62.78
68450;SHT30;55434;39.570;2.652;2022-10-24T15:18:18;28.66;62.48
68450;SHT30;55434;39.570;2.652;2022-10-24T15:20:46;28.55;62.84
68450;SHT30;55434;39.570;2.652;2022-10-24T15:23:25;28.08;64.59
68450;SHT30;55434;39.570;2.652;2022-10-24T15:26:07;27.96;65.49
68450;SHT30;55434;39.570;2.652;2022-10-24T15:28:43;27.64;66.83
68450;SHT30;55434;39.570;2.652;2022-10-24T15:31:36;27.14;69.20
68450;SHT30;55434;39.570;2.652;2022-10-24T15:34:05;27.06;69.88
68450;SHT30;55434;39.570;2.652;2022-10-24T15:37:01;27.41;68.88
68450;SHT30;55434;39.570;2.652;2022-10-24T15:39:28;27.64;68.43
68450;SHT30;55434;39.570;2.652;2022-10-24T15:41:58;27.65;68.39
68450;SHT30;55434;39.570;2.652;2022-10-24T15:44:28;27.55;69.16
68450;SHT30;55434;39.570;2.652;2022-10-24T15:46:57;27.41;69.54
68450;SHT30;55434;39.570;2.652;2022-10-24T15:49:25;27.22;70.59
68450;SHT30;55434;39.570;2.652;2022-10-24T15:51:56;27.13;71.13
68450;SHT30;55434;39.570;2.652;2022-10-24T15:54:28;26.82;71.81
68450;SHT30;55434;39.570;2.652;2022-10-24T15:56:58;26.69;72.34
68450;SHT30;55434;39.570;2.652;2022-10-24T15:59:31;26.59;72.61
68450;SHT30;55434;39.570;2.652;2022-10-24T16:02:00;26.31;73.78
68450;SHT30;55434;39.570;2.652;2022-10-24T16:04:37;26.14;74.60
68450;SHT30;55434;39.570;2.652;2022-10-24T16:07:12;25.97;75.10
68450;SHT30;55434;39.570;2.652;2022-10-24T16:09:43;25.88;75.53
68450;SHT30;55434;39.570;2.652;2022-10-24T16:12:18;26.00;75.45
68450;SHT30;55434;39.570;2.652;2022-10-24T16:14:50;25.88;75.61
68450;SHT30;55434;39.570;2.652;2022-10-24T16:17:18;25.60;76.77
68450;SHT30;55434;39.570;2.652;2022-10-24T16:19:53;25.49;77.08
68450;SHT30;55434;39.570;2.652;2022-10-24T16:22:22;25.44;77.72
68450;SHT30;55434;39.570;2.652;2022-10-24T16:25:09;25.42;77.04
68450;SHT30;55434;39.570;2.652;2022-10-24T16:27:38;25.30;77.50
68450;SHT30;55434;39.570;2.652;2022-10-24T16:30:11;25.16;77.67
68450;SHT30;55434;39.570;2.652;2022-10-24T16:32:47;25.08;77.81
68450;SHT30;55434;39.570;2.652;2022-10-24T16:35:28;24.99;78.01
68450;SHT30;55434;39.570;2.652;2022-10-24T16:37:56;24.93;78.06
68450;SHT30;55434;39.570;2.652;2022-10-24T16:40:23;24.93;78.07
68450;SHT30;55434;39.570;2.652;2022-10-24T16:42:54;24.86;78.27
68450;SHT30;55434;39.570;2.652;2022-10-24T16:45:22;24.81;78.34
68450;SHT30;55434;39.570;2.652;2022-10-24T16:48:25;24.82;78.35
68450;SHT30;55434;39.570;2.652;2022-10-24T16:51:16;24.78;78.19
68450;SHT30;55434;39.570;2.652;2022-10-24T16:53:47;24.76;78.26
68450;SHT30;55434;39.570;2.652;2022-10-24T16:56:33;24.68;78.56
68450;SHT30;55434;39.570;2.652;2022-10-24T16:58:58;24.61;78.47
68450;SHT30;55434;39.570;2.652;2022-10-24T17:01:24;24.58;78.63
68450;SHT30;55434;39.570;2.652;2022-10-24T17:03:52;24.54;78.85
68450;SHT30;55434;39.570;2.652;2022-10-24T17:06:19;24.54;79.02
68450;SHT30;55434;39.570;2.652;2022-10-24T17:08:45;24.45;79.47
68450;SHT30;55434;39.570;2.652;2022-10-24T17:11:11;24.41;79.65
68450;SHT30;55434;39.570;2.652;2022-10-24T17:13:40;24.38;79.56
68450;SHT30;55434;39.570;2.652;2022-10-24T17:16:10;24.40;79.78
68450;SHT30;55434;39.570;2.652;2022-10-24T17:18:36;24.35;79.85
68450;SHT30;55434;39.570;2.652;2022-10-24T17:21:08;24.40;79.81
68450;SHT30;55434;39.570;2.652;2022-10-24T17:23:41;24.38;80.21
68450;SHT30;55434;39.570;2.652;2022-10-24T17:26:14;24.31;80.74
68450;SHT30;55434;39.570;2.652;2022-10-24T17:28:40;24.25;80.98
68450;SHT30;55434;39.570;2.652;2022-10-24T17:31:06;24.28;80.51
68450;SHT30;55434;39.570;2.652;2022-10-24T17:33:32;24.28;80.76
68450;SHT30;55434;39.570;2.652;2022-10-24T17:35:58;24.24;80.73
68450;SHT30;55434;39.570;2.652;2022-10-24T17:38:40;24.24;80.86
68450;SHT30;55434;39.570;2.652;2022-10-24T17:41:23;24.16;81.16
68450;SHT30;55434;39.570;2.652;2022-10-24T17:43:50;24.14;81.06
68450;SHT30;55434;39.570;2.652;2022-10-24T17:46:16;24.06;81.41
68450;SHT30;55434;39.570;2.652;2022-10-24T17:48:42;23.93;81.67
68450;SHT30;55434;39.570;2.652;2022-10-24T17:51:09;23.94;81.75
68450;SHT30;55434;39.570;2.652;2022-10-24T17:53:36;23.89;82.06
68450;SHT30;55434;39.570;2.652;2022-10-24T17:56:02;23.94;81.92
68450;SHT30;55434;39.570;2.652;2022-10-24T17:58:28;23.90;82.00
68450;SHT30;55434;39.570;2.652;2022-10-24T18:00:53;23.96;81.75
68450;SHT30;55434;39.570;2.652;2022-10-24T18:03:19;24.01;81.70
68450;SHT30;55434;39.570;2.652;2022-10-24T18:05:45;24.07;81.59
68450;SHT30;55434;39.570;2.652;2022-10-24T18:08:12;24.01;81.61
68450;SHT30;55434;39.570;2.652;2022-10-24T18:10:39;24.03;81.77
68450;SHT30;55434;39.570;2.652;2022-10-24T18:13:06;24.03;81.72
68450;SHT30;55434;39.570;2.652;2022-10-24T18:15:32;24.07;81.55
68450;SHT30;55434;39.570;2.652;2022-10-24T18:18:01;23.98;81.97
68450;SHT30;55434;39.570;2.652;2022-10-24T18:20:27;23.98;82.15
68450;SHT30;55434;39.570;2.652;2022-10-24T18:22:53;23.92;82.25
68450;SHT30;55434;39.570;2.652;2022-10-24T18:25:19;23.81;82.80
68450;SHT30;55434;39.570;2.652;2022-10-24T18:27:45;23.74;82.91
68450;SHT30;55434;39.570;2.652;2022-10-24T18:30:11;23.70;82.99
68450;SHT30;55434;39.570;2.652;2022-10-24T18:32:36;23.73;82.86
68450;SHT30;55434;39.570;2.652;2022-10-24T18:35:05;23.66;83.07
68450;SHT30;55434;39.570;2.652;2022-10-24T18:37:31;23.55;83.30
68450;SHT30;55434;39.570;2.652;2022-10-24T18:40:01;23.49;83.77
68450;SHT30;55434;39.570;2.652;2022-10-24T18:42:57;23.38;83.65
68450;SHT30;55434;39.570;2.652;2022-10-24T18:45:26;23.32;83.61
68450;SHT30;55434;39.570;2.652;2022-10-24T18:47:54;23.23;83.64
68450;SHT30;55434;39.570;2.652;2022-10-24T18:50:22;23.15;83.48
68450;SHT30;55434;39.570;2.652;2022-10-24T18:53:02;23.06;83.82
68450;SHT30;55434;39.570;2.652;2022-10-24T18:55:30;23.02;83.93
68450;SHT30;55434;39.570;2.652;2022-10-24T18:57:57;23.01;84.02
68450;SHT30;55434;39.570;2.652;2022-10-24T19:00:28;22.96;84.24
68450;SHT30;55434;39.570;2.652;2022-10-24T19:08:17;22.94;83.82
68450;SHT30;55434;39.570;2.652;2022-10-24T19:10:44;22.92;83.71
68450;SHT30;55434;39.570;2.652;2022-10-24T19:13:13;22.88;83.68
68450;SHT30;55434;39.570;2.652;2022-10-24T19:15:42;22.83;83.60
68450;SHT30;55434;39.570;2.652;2022-10-24T19:18:33;22.74;83.82
68450;SHT30;55434;39.570;2.652;2022-10-24T19:21:03;22.68;83.75
68450;SHT30;55434;39.570;2.652;2022-10-24T19:23:29;22.61;83.69
68450;SHT30;55434;39.570;2.652;2022-10-24T19:25:55;22.55;83.54